Time;durP1;ratioP1;P1;durP2;ratioP2;P2;SDS_P1;SDS_P2;PMS_P1;PMS_P2;Temp;Humidity;BMP_temperature;BMP_pressure;BME280_temperature;BME280_humidity;BME280_pressure;Samples;Min_cycle;Max_cycle;Signal;HPM_P1;HPM_P2
2022/06/02 00:06:52;;;;;;;2.57;1.70;;;10.60;99.90;;;;;;20622030;28;20374;-41
2022/06/02 00:17:00;;;;;;;2.45;1.05;;;10.50;99.90;;;;;;20621559;28;20084;-41
2022/06/02 00:27:27;;;;;;;3.58;1.48;;;10.50;99.90;;;;;;20624270;28;20057;-41
2022/06/02 00:37:45;;;;;;;2.63;1.25;;;10.40;99.90;;;;;;20617980;28;21172;-41
2022/06/02 00:48:12;;;;;;;2.10;1.25;;;10.40;99.90;;;;;;20622077;28;20051;-41
2022/06/02 00:58:47;;;;;;;4.27;1.63;;;10.30;99.90;;;;;;20651730;28;20050;-41
2022/06/02 01:08:51;;;;;;;3.40;1.42;;;10.30;99.90;;;;;;20668338;28;20521;-41
2022/06/02 01:18:54;;;;;;;3.30;1.48;;;10.20;99.90;;;;;;20696294;28;20045;-41
2022/06/02 01:29:04;;;;;;;2.53;1.20;;;10.20;99.90;;;;;;20694404;28;20822;-41
2022/06/02 01:39:08;;;;;;;3.67;2.05;;;10.10;99.90;;;;;;20662890;28;20560;-41
2022/06/02 01:49:15;;;;;;;3.15;1.38;;;10.10;99.90;;;;;;20610483;28;20949;-41
2022/06/02 01:59:27;;;;;;;3.47;1.50;;;10.10;99.90;;;;;;20607791;28;20229;-41
2022/06/02 02:09:41;;;;;;;2.50;0.75;;;10.00;99.90;;;;;;20686889;28;20996;-41
2022/06/02 02:20:14;;;;;;;3.58;1.75;;;10.00;99.90;;;;;;20674478;28;21455;-41
2022/06/02 02:30:16;;;;;;;2.45;1.63;;;9.90;99.90;;;;;;20609234;28;20469;-41
2022/06/02 02:40:37;;;;;;;2.35;1.45;;;9.70;99.90;;;;;;20622419;28;20050;-41
2022/06/02 02:50:41;;;;;;;2.83;1.42;;;9.70;99.90;;;;;;20610224;28;20050;-42
2022/06/02 03:01:02;;;;;;;3.38;1.60;;;9.70;99.90;;;;;;20611017;28;20056;-42
2022/06/02 03:11:31;;;;;;;4.60;1.85;;;9.60;99.90;;;;;;20627424;28;20530;-41
2022/06/02 03:21:36;;;;;;;4.20;1.90;;;9.60;99.90;;;;;;20652624;28;21501;-41
2022/06/02 03:31:57;;;;;;;3.33;1.67;;;9.60;99.90;;;;;;20706941;28;20405;-41
2022/06/02 03:42:20;;;;;;;2.65;1.17;;;9.50;99.90;;;;;;20703028;28;20857;-41
2022/06/02 03:52:27;;;;;;;4.22;1.88;;;9.40;99.90;;;;;;20687536;28;20069;-41
2022/06/02 04:02:51;;;;;;;3.78;2.30;;;9.20;99.90;;;;;;20597981;28;20058;-41
2022/06/02 04:24:06;;;;;;;2.78;1.25;;;9.30;99.90;;;;;;20639791;28;21360;-41
2022/06/02 04:34:43;;;;;;;4.50;2.38;;;9.30;99.90;;;;;;20585849;28;20070;-42
2022/06/02 04:45:02;;;;;;;2.65;1.55;;;9.30;99.90;;;;;;20635911;28;22105;-41
2022/06/02 04:55:25;;;;;;;4.03;1.95;;;9.40;99.90;;;;;;20637708;28;20045;-42
2022/06/02 05:05:49;;;;;;;3.15;1.83;;;9.70;99.90;;;;;;20632233;28;20046;-42
2022/06/02 05:16:05;;;;;;;3.63;1.90;;;10.10;99.90;;;;;;20637345;28;20080;-42
2022/06/02 05:26:36;;;;;;;4.35;2.05;;;10.40;99.90;;;;;;20638629;28;20064;-42
2022/06/02 05:36:48;;;;;;;2.83;1.42;;;10.80;99.90;;;;;;20586772;28;21552;-42
2022/06/02 05:47:14;;;;;;;4.82;1.98;;;11.20;99.90;;;;;;20595488;28;20113;-42
2022/06/02 05:57:26;;;;;;;6.07;2.70;;;11.70;99.90;;;;;;20601626;28;20529;-42
2022/06/02 06:08:11;;;;;;;4.68;1.80;;;12.10;99.90;;;;;;20633427;28;20166;-41
2022/06/02 06:18:31;;;;;;;5.68;2.58;;;12.50;99.90;;;;;;20559857;28;21489;-42
2022/06/02 06:28:36;;;;;;;2.90;1.63;;;12.80;99.90;;;;;;20621061;28;20053;-42
2022/06/02 06:38:45;;;;;;;3.72;1.98;;;13.20;99.90;;;;;;20646603;28;20034;-42
2022/06/02 06:48:51;;;;;;;3.55;1.13;;;13.50;99.90;;;;;;20648916;28;20088;-42
2022/06/02 06:59:27;;;;;;;2.55;1.23;;;13.70;99.90;;;;;;20646454;28;20050;-42
2022/06/02 07:09:48;;;;;;;3.90;1.88;;;13.80;99.90;;;;;;20631588;28;20061;-42
2022/06/02 07:19:52;;;;;;;3.20;1.20;;;13.90;99.90;;;;;;20602197;28;20057;-42
2022/06/02 07:30:11;;;;;;;3.92;1.95;;;14.00;99.90;;;;;;20582197;28;20058;-42
2022/06/02 07:40:35;;;;;;;1.88;0.80;;;14.00;99.90;;;;;;20610466;28;20679;-42
2022/06/02 07:50:46;;;;;;;2.90;1.65;;;13.80;99.90;;;;;;20585916;28;21024;-42
2022/06/02 08:00:54;;;;;;;4.13;1.75;;;13.60;99.90;;;;;;20658371;28;21556;-42
2022/06/02 08:11:27;;;;;;;2.53;1.35;;;13.50;99.90;;;;;;20703057;28;20049;-42
2022/06/02 08:21:42;;;;;;;3.35;2.22;;;13.40;99.90;;;;;;20689109;28;20509;-42
2022/06/02 08:31:46;;;;;;;4.22;1.27;;;13.50;99.90;;;;;;20709531;28;21557;-42
2022/06/02 08:42:05;;;;;;;1.35;0.40;;;14.00;99.90;;;;;;20668812;28;20049;-42
2022/06/02 08:52:06;;;;;;;2.95;0.93;;;14.40;99.90;;;;;;20710691;28;20061;-42
2022/06/02 09:02:25;;;;;;;2.22;1.08;;;15.10;99.90;;;;;;20690557;28;20053;-42
2022/06/02 09:13:11;;;;;;;0.90;0.65;;;15.20;99.90;;;;;;20692342;28;20153;-42
2022/06/02 09:23:15;;;;;;;1.67;0.88;;;15.50;99.90;;;;;;20682084;28;20064;-41
2022/06/02 09:33:43;;;;;;;1.20;0.57;;;16.20;99.90;;;;;;20666458;28;20157;-40
2022/06/02 09:44:07;;;;;;;2.65;1.50;;;16.80;99.90;;;;;;20627327;28;20046;-40
2022/06/02 09:54:41;;;;;;;1.70;0.93;;;16.70;99.90;;;;;;20686021;28;20471;-40
2022/06/02 10:04:57;;;;;;;2.15;0.90;;;16.40;99.90;;;;;;20685563;28;20350;-40
2022/06/02 10:15:24;;;;;;;1.75;0.55;;;16.30;99.90;;;;;;20733394;28;20058;-41
2022/06/02 10:25:59;;;;;;;1.52;0.70;;;16.90;99.90;;;;;;20717753;28;20555;-40
2022/06/02 10:36:09;;;;;;;4.03;1.40;;;17.40;99.90;;;;;;20720195;28;21595;-40
2022/06/02 10:46:11;;;;;;;2.30;1.15;;;17.40;99.90;;;;;;20727723;28;20050;-40
2022/06/02 10:57:03;;;;;;;1.65;1.00;;;17.20;99.90;;;;;;20715953;28;20057;-41
2022/06/02 11:07:14;;;;;;;2.17;0.95;;;17.60;99.90;;;;;;20656491;28;20054;-40
2022/06/02 11:17:44;;;;;;;1.88;1.00;;;17.80;99.90;;;;;;20640106;28;20120;-40
2022/06/02 11:28:10;;;;;;;1.67;0.90;;;17.70;99.90;;;;;;20706960;28;22322;-40
2022/06/02 11:38:41;;;;;;;1.10;0.40;;;18.00;99.90;;;;;;20691590;28;20485;-40
2022/06/02 11:49:19;;;;;;;1.48;0.82;;;17.80;99.90;;;;;;20627246;28;20133;-40
2022/06/02 11:59:51;;;;;;;0.98;0.35;;;17.80;99.90;;;;;;20690812;28;21340;-40
2022/06/02 12:10:26;;;;;;;0.93;0.57;;;18.00;99.90;;;;;;20700848;28;21926;-40
2022/06/02 12:20:55;;;;;;;0.75;0.30;;;18.60;99.90;;;;;;20670378;28;21361;-40
2022/06/02 12:31:23;;;;;;;0.32;0.10;;;18.60;99.00;;;;;;20682792;28;20670;-40
2022/06/02 12:41:34;;;;;;;;;;;18.70;96.90;;;;;;20611983;28;20046;-40
2022/06/02 12:52:23;;;;;;;0.10;0.08;;;18.80;96.50;;;;;;20627607;28;20493;-40
2022/06/02 13:02:36;;;;;;;0.47;0.28;;;18.60;98.70;;;;;;20562984;28;21489;-40
2022/06/02 13:13:14;;;;;;;1.15;0.55;;;18.90;97.90;;;;;;20622666;28;20131;-40
2022/06/02 13:23:54;;;;;;;1.10;0.60;;;19.10;99.40;;;;;;20607148;28;20058;-40
2022/06/02 13:34:38;;;;;;;0.80;0.40;;;19.40;99.00;;;;;;20588140;28;20429;-40
2022/06/02 13:44:48;;;;;;;0.90;0.30;;;19.30;99.80;;;;;;20620020;28;20449;-40
2022/06/02 14:06:16;;;;;;;0.98;0.40;;;19.20;99.90;;;;;;20689332;28;22586;-40
2022/06/02 14:16:37;;;;;;;0.93;0.32;;;19.10;99.90;;;;;;20612447;28;20425;-41
2022/06/02 14:26:41;;;;;;;1.40;0.88;;;19.20;99.90;;;;;;20603092;28;20272;-40
2022/06/02 14:36:58;;;;;;;0.77;0.40;;;19.40;99.90;;;;;;20620227;28;20060;-41
2022/06/02 14:47:14;;;;;;;0.60;0.20;;;19.70;99.90;;;;;;20707655;28;20460;-41
2022/06/02 14:57:46;;;;;;;1.73;0.40;;;19.60;99.90;;;;;;20693793;28;20487;-41
2022/06/02 15:08:08;;;;;;;0.75;0.40;;;19.60;99.90;;;;;;20675196;28;20534;-42
2022/06/02 15:18:40;;;;;;;1.02;0.50;;;19.60;99.90;;;;;;20718511;28;20505;-41
2022/06/02 15:29:08;;;;;;;1.17;0.50;;;19.40;99.90;;;;;;20724898;28;20365;-41
2022/06/02 15:39:31;;;;;;;0.80;0.35;;;19.10;99.90;;;;;;20722516;28;20531;-41
2022/06/02 15:50:22;;;;;;;1.10;0.40;;;19.20;99.90;;;;;;20730060;28;20521;-41
2022/06/02 16:01:00;;;;;;;0.60;0.40;;;19.40;99.90;;;;;;20713928;28;20662;-42
2022/06/02 16:11:22;;;;;;;2.60;0.50;;;19.10;99.90;;;;;;20680146;28;21584;-41
2022/06/02 16:21:52;;;;;;;1.13;0.47;;;19.00;99.90;;;;;;20633523;28;20038;-41
2022/06/02 16:32:05;;;;;;;0.60;0.30;;;18.60;99.90;;;;;;20715912;28;21378;-41
2022/06/02 16:42:31;;;;;;;1.95;0.40;;;18.60;99.90;;;;;;20704523;28;20469;-41
2022/06/02 16:52:43;;;;;;;0.63;0.30;;;18.50;99.90;;;;;;20645749;28;20073;-41
2022/06/02 17:03:15;;;;;;;0.73;0.20;;;18.40;99.90;;;;;;20644500;28;20733;-41
2022/06/02 17:13:35;;;;;;;0.90;0.30;;;18.10;99.90;;;;;;20587723;28;20042;-41
2022/06/02 17:24:21;;;;;;;0.30;0.20;;;18.00;99.90;;;;;;20668225;28;20477;-41
2022/06/02 17:34:28;;;;;;;0.85;0.47;;;18.00;99.90;;;;;;20531692;28;21179;-41
2022/06/02 17:44:47;;;;;;;0.70;0.30;;;17.90;99.90;;;;;;20672982;28;21464;-41
2022/06/02 17:55:11;;;;;;;0.55;0.30;;;17.90;99.90;;;;;;20632902;28;20077;-41
2022/06/02 18:05:27;;;;;;;1.25;0.60;;;17.80;99.90;;;;;;20680963;28;20041;-41
2022/06/02 18:15:52;;;;;;;0.60;0.30;;;17.80;99.90;;;;;;20612516;28;20289;-41
2022/06/02 18:26:13;;;;;;;0.50;0.30;;;18.00;99.90;;;;;;20634063;28;20515;-41
2022/06/02 18:36:36;;;;;;;2.08;0.32;;;17.70;99.90;;;;;;20632655;28;20393;-41
2022/06/02 18:47:01;;;;;;;1.38;0.20;;;17.60;99.90;;;;;;20623775;28;21525;-41
2022/06/02 18:57:10;;;;;;;1.00;0.50;;;17.50;99.90;;;;;;20623051;28;20556;-41
2022/06/02 19:18:26;;;;;;;0.50;0.20;;;17.10;99.90;;;;;;20626723;28;20514;-41
2022/06/02 19:28:36;;;;;;;1.23;0.60;;;16.80;99.90;;;;;;20707406;28;20451;-41
2022/06/02 19:38:42;;;;;;;1.65;0.30;;;16.50;99.90;;;;;;20627349;28;20085;-41
2022/06/02 19:49:22;;;;;;;0.30;0.10;;;16.40;99.90;;;;;;20679371;28;21524;-41
2022/06/02 19:59:29;;;;;;;0.77;0.40;;;16.20;99.90;;;;;;20680663;28;21384;-41
2022/06/02 20:09:50;;;;;;;0.45;0.20;;;16.00;99.90;;;;;;20631009;28;20454;-41
2022/06/02 20:20:16;;;;;;;0.57;0.22;;;15.90;99.90;;;;;;20628125;28;20783;-41
2022/06/02 20:30:26;;;;;;;0.80;0.25;;;15.70;99.90;;;;;;20640240;28;20497;-41
2022/06/02 20:40:33;;;;;;;1.30;1.00;;;15.50;99.90;;;;;;20664774;28;20291;-41
2022/06/02 20:50:57;;;;;;;0.90;0.47;;;15.40;99.90;;;;;;20686091;28;20136;-41
2022/06/02 21:01:00;;;;;;;1.75;0.35;;;15.30;99.90;;;;;;20687082;28;21419;-41
2022/06/02 21:11:22;;;;;;;1.55;0.68;;;15.20;99.90;;;;;;20655866;28;20054;-41
2022/06/02 21:21:33;;;;;;;0.20;0.10;;;15.10;99.90;;;;;;20601163;28;20250;-41
2022/06/02 21:31:38;;;;;;;0.90;0.57;;;15.00;99.90;;;;;;20610015;28;21459;-44
2022/06/02 21:41:45;;;;;;;1.52;0.75;;;14.80;99.90;;;;;;20690896;28;20038;-41
2022/06/02 21:52:01;;;;;;;1.77;0.97;;;14.80;99.90;;;;;;20686270;28;20542;-41
2022/06/02 22:02:20;;;;;;;0.95;0.40;;;14.60;99.90;;;;;;20686701;28;20054;-41
2022/06/02 22:12:27;;;;;;;1.20;0.52;;;14.60;99.90;;;;;;20685197;28;21831;-41
2022/06/02 22:22:44;;;;;;;1.27;0.40;;;14.50;99.90;;;;;;20682319;28;23126;-41
2022/06/02 22:33:19;;;;;;;3.07;0.60;;;14.40;99.90;;;;;;20692753;28;20319;-41
2022/06/02 22:43:51;;;;;;;0.70;0.30;;;14.40;99.90;;;;;;20667830;28;20040;-41
2022/06/02 22:54:20;;;;;;;1.48;0.70;;;14.30;99.90;;;;;;20698634;28;20267;-41
2022/06/02 23:04:59;;;;;;;1.20;0.60;;;14.20;99.90;;;;;;20697414;28;20052;-41
2022/06/02 23:15:18;;;;;;;0.67;0.40;;;14.10;99.90;;;;;;20691113;28;20912;-41
2022/06/02 23:25:56;;;;;;;2.95;0.60;;;14.00;99.90;;;;;;20705618;28;20242;-41
2022/06/02 23:36:41;;;;;;;1.40;0.43;;;13.90;99.90;;;;;;20668649;28;20553;-41
2022/06/02 23:46:48;;;;;;;1.48;0.57;;;13.70;99.90;;;;;;20638027;28;20345;-41
2022/06/02 23:57:04;;;;;;;1.20;0.50;;;13.70;99.90;;;;;;20629430;28;20533;-41
